sensor_id;sensor_type;location;lat;lon;timestamp;P1;durP1;ratioP1;P2;durP2;ratioP2
11665;SDS011;5889;51.350;6.708;2023-02-26T00:01:21;6.03;;;2.50;;
11665;SDS011;5889;51.350;6.708;2023-02-26T00:03:50;4.33;;;2.07;;
11665;SDS011;5889;51.350;6.708;2023-02-26T00:06:18;5.17;;;2.93;;
11665;SDS011;5889;51.350;6.708;2023-02-26T00:08:46;8.33;;;3.00;;
11665;SDS011;5889;51.350;6.708;2023-02-26T00:11:13;5.00;;;2.60;;
11665;SDS011;5889;51.350;6.708;2023-02-26T00:13:41;11.63;;;3.77;;
11665;SDS011;5889;51.350;6.708;2023-02-26T00:16:12;9.80;;;3.20;;
11665;SDS011;5889;51.350;6.708;2023-02-26T00:18:47;8.83;;;3.53;;
11665;SDS011;5889;51.350;6.708;2023-02-26T00:21:15;10.13;;;3.23;;
11665;SDS011;5889;51.350;6.708;2023-02-26T00:23:44;9.10;;;3.57;;
11665;SDS011;5889;51.350;6.708;2023-02-26T00:26:11;8.67;;;3.43;;
11665;SDS011;5889;51.350;6.708;2023-02-26T00:28:38;6.10;;;3.13;;
11665;SDS011;5889;51.350;6.708;2023-02-26T00:31:06;8.73;;;3.30;;
11665;SDS011;5889;51.350;6.708;2023-02-26T00:33:35;12.47;;;5.40;;
11665;SDS011;5889;51.350;6.708;2023-02-26T00:36:14;12.60;;;5.67;;
11665;SDS011;5889;51.350;6.708;2023-02-26T00:38:50;9.07;;;3.93;;
11665;SDS011;5889;51.350;6.708;2023-02-26T00:41:27;12.50;;;3.77;;
11665;SDS011;5889;51.350;6.708;2023-02-26T00:43:54;8.90;;;2.40;;
11665;SDS011;5889;51.350;6.708;2023-02-26T00:46:24;12.30;;;2.37;;
11665;SDS011;5889;51.350;6.708;2023-02-26T00:49:04;7.27;;;2.00;;
11665;SDS011;5889;51.350;6.708;2023-02-26T00:51:40;4.27;;;2.00;;
11665;SDS011;5889;51.350;6.708;2023-02-26T00:54:14;4.47;;;2.27;;
11665;SDS011;5889;51.350;6.708;2023-02-26T00:56:44;7.07;;;2.37;;
11665;SDS011;5889;51.350;6.708;2023-02-26T00:59:11;4.20;;;1.83;;
11665;SDS011;5889;51.350;6.708;2023-02-26T01:01:38;9.33;;;2.73;;
11665;SDS011;5889;51.350;6.708;2023-02-26T01:04:07;5.93;;;2.00;;
11665;SDS011;5889;51.350;6.708;2023-02-26T01:06:35;7.47;;;2.10;;
11665;SDS011;5889;51.350;6.708;2023-02-26T01:09:08;7.73;;;2.90;;
11665;SDS011;5889;51.350;6.708;2023-02-26T01:11:44;8.23;;;2.63;;
11665;SDS011;5889;51.350;6.708;2023-02-26T01:14:12;9.43;;;3.10;;
11665;SDS011;5889;51.350;6.708;2023-02-26T01:16:43;7.47;;;2.50;;
11665;SDS011;5889;51.350;6.708;2023-02-26T01:19:19;7.70;;;2.53;;
11665;SDS011;5889;51.350;6.708;2023-02-26T01:21:55;7.20;;;2.63;;
11665;SDS011;5889;51.350;6.708;2023-02-26T01:24:29;6.83;;;3.57;;
11665;SDS011;5889;51.350;6.708;2023-02-26T01:26:56;9.23;;;4.00;;
11665;SDS011;5889;51.350;6.708;2023-02-26T01:29:24;7.20;;;3.90;;
11665;SDS011;5889;51.350;6.708;2023-02-26T01:31:53;4.30;;;2.63;;
11665;SDS011;5889;51.350;6.708;2023-02-26T01:34:28;12.57;;;3.60;;
11665;SDS011;5889;51.350;6.708;2023-02-26T01:37:03;8.60;;;2.90;;
11665;SDS011;5889;51.350;6.708;2023-02-26T01:39:41;8.70;;;2.30;;
11665;SDS011;5889;51.350;6.708;2023-02-26T01:42:13;4.13;;;1.80;;
11665;SDS011;5889;51.350;6.708;2023-02-26T01:44:47;2.13;;;1.33;;
11665;SDS011;5889;51.350;6.708;2023-02-26T01:47:22;6.50;;;2.20;;
11665;SDS011;5889;51.350;6.708;2023-02-26T01:49:57;4.90;;;2.40;;
11665;SDS011;5889;51.350;6.708;2023-02-26T01:55:34;4.93;;;1.90;;
11665;SDS011;5889;51.350;6.708;2023-02-26T01:58:01;5.37;;;2.23;;
11665;SDS011;5889;51.350;6.708;2023-02-26T02:00:30;5.60;;;2.13;;
11665;SDS011;5889;51.350;6.708;2023-02-26T02:02:57;5.57;;;2.40;;
11665;SDS011;5889;51.350;6.708;2023-02-26T02:05:27;8.47;;;2.73;;
11665;SDS011;5889;51.350;6.708;2023-02-26T02:07:57;12.83;;;3.03;;
11665;SDS011;5889;51.350;6.708;2023-02-26T02:10:26;11.83;;;4.10;;
11665;SDS011;5889;51.350;6.708;2023-02-26T02:12:54;8.93;;;3.40;;
11665;SDS011;5889;51.350;6.708;2023-02-26T02:15:29;11.50;;;3.77;;
11665;SDS011;5889;51.350;6.708;2023-02-26T02:18:06;8.93;;;3.27;;
11665;SDS011;5889;51.350;6.708;2023-02-26T02:23:36;4.33;;;2.40;;
11665;SDS011;5889;51.350;6.708;2023-02-26T02:26:13;6.13;;;2.43;;
11665;SDS011;5889;51.350;6.708;2023-02-26T02:28:55;2.43;;;1.57;;
11665;SDS011;5889;51.350;6.708;2023-02-26T02:31:59;6.97;;;1.70;;
11665;SDS011;5889;51.350;6.708;2023-02-26T02:34:32;4.63;;;2.07;;
11665;SDS011;5889;51.350;6.708;2023-02-26T02:37:04;5.27;;;2.20;;
11665;SDS011;5889;51.350;6.708;2023-02-26T02:39:39;3.90;;;1.90;;
11665;SDS011;5889;51.350;6.708;2023-02-26T02:42:15;5.00;;;1.80;;
11665;SDS011;5889;51.350;6.708;2023-02-26T02:44:48;5.00;;;2.40;;
11665;SDS011;5889;51.350;6.708;2023-02-26T02:47:20;6.77;;;2.30;;
11665;SDS011;5889;51.350;6.708;2023-02-26T02:49:50;5.57;;;2.57;;
11665;SDS011;5889;51.350;6.708;2023-02-26T02:52:24;3.63;;;2.00;;
11665;SDS011;5889;51.350;6.708;2023-02-26T02:54:58;7.53;;;2.13;;
11665;SDS011;5889;51.350;6.708;2023-02-26T02:57:32;4.50;;;1.90;;
11665;SDS011;5889;51.350;6.708;2023-02-26T03:00:03;7.90;;;2.40;;
11665;SDS011;5889;51.350;6.708;2023-02-26T03:02:38;3.33;;;1.93;;
11665;SDS011;5889;51.350;6.708;2023-02-26T03:05:12;3.33;;;2.10;;
11665;SDS011;5889;51.350;6.708;2023-02-26T03:07:42;5.13;;;2.07;;
11665;SDS011;5889;51.350;6.708;2023-02-26T03:10:14;8.27;;;1.93;;
11665;SDS011;5889;51.350;6.708;2023-02-26T03:12:42;7.77;;;2.30;;
11665;SDS011;5889;51.350;6.708;2023-02-26T03:15:09;8.53;;;2.43;;
11665;SDS011;5889;51.350;6.708;2023-02-26T03:17:42;6.33;;;2.60;;
11665;SDS011;5889;51.350;6.708;2023-02-26T03:20:18;4.87;;;2.30;;
11665;SDS011;5889;51.350;6.708;2023-02-26T03:22:52;8.77;;;2.50;;
11665;SDS011;5889;51.350;6.708;2023-02-26T03:25:32;10.93;;;3.20;;
11665;SDS011;5889;51.350;6.708;2023-02-26T03:28:06;8.57;;;3.60;;
11665;SDS011;5889;51.350;6.708;2023-02-26T03:30:41;12.47;;;4.57;;
11665;SDS011;5889;51.350;6.708;2023-02-26T03:33:16;21.40;;;7.17;;
11665;SDS011;5889;51.350;6.708;2023-02-26T03:35:48;14.67;;;5.80;;
11665;SDS011;5889;51.350;6.708;2023-02-26T03:38:23;12.97;;;4.67;;
11665;SDS011;5889;51.350;6.708;2023-02-26T03:40:58;6.83;;;3.43;;
11665;SDS011;5889;51.350;6.708;2023-02-26T03:43:29;8.40;;;3.20;;
11665;SDS011;5889;51.350;6.708;2023-02-26T03:46:01;5.50;;;3.17;;
11665;SDS011;5889;51.350;6.708;2023-02-26T03:48:34;7.60;;;3.23;;
11665;SDS011;5889;51.350;6.708;2023-02-26T03:51:03;4.60;;;2.50;;
11665;SDS011;5889;51.350;6.708;2023-02-26T03:53:33;8.70;;;2.77;;
11665;SDS011;5889;51.350;6.708;2023-02-26T03:56:05;5.30;;;2.90;;
11665;SDS011;5889;51.350;6.708;2023-02-26T03:58:36;9.60;;;2.97;;
11665;SDS011;5889;51.350;6.708;2023-02-26T04:01:16;6.90;;;3.00;;
11665;SDS011;5889;51.350;6.708;2023-02-26T04:03:54;7.80;;;3.10;;
11665;SDS011;5889;51.350;6.708;2023-02-26T04:06:25;9.80;;;3.43;;
11665;SDS011;5889;51.350;6.708;2023-02-26T04:08:53;8.40;;;3.13;;
11665;SDS011;5889;51.350;6.708;2023-02-26T04:11:21;8.07;;;2.90;;
11665;SDS011;5889;51.350;6.708;2023-02-26T04:13:49;6.10;;;2.10;;
11665;SDS011;5889;51.350;6.708;2023-02-26T04:16:17;13.47;;;3.27;;
11665;SDS011;5889;51.350;6.708;2023-02-26T04:18:44;8.53;;;3.27;;
11665;SDS011;5889;51.350;6.708;2023-02-26T04:21:12;9.10;;;2.60;;
11665;SDS011;5889;51.350;6.708;2023-02-26T04:23:41;5.17;;;2.30;;
11665;SDS011;5889;51.350;6.708;2023-02-26T04:26:08;6.63;;;3.27;;
11665;SDS011;5889;51.350;6.708;2023-02-26T04:28:35;7.00;;;2.17;;
11665;SDS011;5889;51.350;6.708;2023-02-26T04:31:02;3.50;;;2.20;;
11665;SDS011;5889;51.350;6.708;2023-02-26T04:33:29;6.23;;;1.97;;
11665;SDS011;5889;51.350;6.708;2023-02-26T04:35:57;5.13;;;2.00;;
11665;SDS011;5889;51.350;6.708;2023-02-26T04:38:26;6.47;;;1.80;;
11665;SDS011;5889;51.350;6.708;2023-02-26T04:40:53;7.13;;;1.97;;
11665;SDS011;5889;51.350;6.708;2023-02-26T04:43:20;7.90;;;2.50;;
11665;SDS011;5889;51.350;6.708;2023-02-26T04:45:47;6.73;;;1.80;;
11665;SDS011;5889;51.350;6.708;2023-02-26T04:48:15;5.77;;;2.10;;
11665;SDS011;5889;51.350;6.708;2023-02-26T04:50:42;5.70;;;2.27;;
11665;SDS011;5889;51.350;6.708;2023-02-26T04:53:09;3.80;;;1.90;;
11665;SDS011;5889;51.350;6.708;2023-02-26T04:55:38;7.03;;;1.83;;
11665;SDS011;5889;51.350;6.708;2023-02-26T04:58:05;5.23;;;1.60;;
11665;SDS011;5889;51.350;6.708;2023-02-26T05:00:32;4.03;;;1.93;;
11665;SDS011;5889;51.350;6.708;2023-02-26T05:03:00;13.03;;;2.13;;
11665;SDS011;5889;51.350;6.708;2023-02-26T05:05:26;7.70;;;2.20;;
11665;SDS011;5889;51.350;6.708;2023-02-26T05:07:53;6.27;;;2.17;;
11665;SDS011;5889;51.350;6.708;2023-02-26T05:10:21;4.20;;;1.77;;
11665;SDS011;5889;51.350;6.708;2023-02-26T05:12:49;3.23;;;1.70;;
11665;SDS011;5889;51.350;6.708;2023-02-26T05:15:16;4.63;;;1.67;;
11665;SDS011;5889;51.350;6.708;2023-02-26T05:17:44;4.17;;;1.53;;
11665;SDS011;5889;51.350;6.708;2023-02-26T05:20:11;2.33;;;1.77;;
11665;SDS011;5889;51.350;6.708;2023-02-26T05:22:39;4.17;;;1.87;;
11665;SDS011;5889;51.350;6.708;2023-02-26T05:25:07;3.77;;;1.40;;
11665;SDS011;5889;51.350;6.708;2023-02-26T05:27:36;3.10;;;1.40;;
11665;SDS011;5889;51.350;6.708;2023-02-26T05:30:06;5.30;;;1.93;;
11665;SDS011;5889;51.350;6.708;2023-02-26T05:32:34;10.87;;;2.60;;
11665;SDS011;5889;51.350;6.708;2023-02-26T05:35:02;2.97;;;1.60;;
11665;SDS011;5889;51.350;6.708;2023-02-26T05:37:29;4.03;;;2.10;;
11665;SDS011;5889;51.350;6.708;2023-02-26T05:39:57;6.83;;;1.87;;
11665;SDS011;5889;51.350;6.708;2023-02-26T05:42:24;2.27;;;1.53;;
11665;SDS011;5889;51.350;6.708;2023-02-26T05:44:51;5.30;;;1.70;;
11665;SDS011;5889;51.350;6.708;2023-02-26T05:47:19;3.83;;;1.63;;
11665;SDS011;5889;51.350;6.708;2023-02-26T05:49:46;5.27;;;1.97;;
11665;SDS011;5889;51.350;6.708;2023-02-26T05:52:13;9.23;;;1.70;;
11665;SDS011;5889;51.350;6.708;2023-02-26T05:54:40;5.00;;;1.70;;
11665;SDS011;5889;51.350;6.708;2023-02-26T05:57:07;3.83;;;2.23;;
11665;SDS011;5889;51.350;6.708;2023-02-26T05:59:34;4.33;;;1.87;;
11665;SDS011;5889;51.350;6.708;2023-02-26T06:02:02;2.37;;;1.47;;
11665;SDS011;5889;51.350;6.708;2023-02-26T06:04:31;5.27;;;1.80;;
11665;SDS011;5889;51.350;6.708;2023-02-26T06:06:58;6.40;;;1.93;;
11665;SDS011;5889;51.350;6.708;2023-02-26T06:09:25;7.53;;;2.17;;
11665;SDS011;5889;51.350;6.708;2023-02-26T06:11:52;2.97;;;1.43;;
11665;SDS011;5889;51.350;6.708;2023-02-26T06:14:18;5.00;;;2.07;;
11665;SDS011;5889;51.350;6.708;2023-02-26T06:16:45;7.47;;;2.03;;
11665;SDS011;5889;51.350;6.708;2023-02-26T06:19:12;4.10;;;1.90;;
11665;SDS011;5889;51.350;6.708;2023-02-26T06:21:41;2.63;;;1.40;;
11665;SDS011;5889;51.350;6.708;2023-02-26T06:24:08;5.37;;;1.80;;
11665;SDS011;5889;51.350;6.708;2023-02-26T06:26:35;4.73;;;1.70;;
11665;SDS011;5889;51.350;6.708;2023-02-26T06:29:02;7.67;;;2.33;;
11665;SDS011;5889;51.350;6.708;2023-02-26T06:31:28;3.97;;;1.90;;
11665;SDS011;5889;51.350;6.708;2023-02-26T06:33:55;3.30;;;1.87;;
11665;SDS011;5889;51.350;6.708;2023-02-26T06:36:22;3.17;;;1.90;;
11665;SDS011;5889;51.350;6.708;2023-02-26T06:38:51;4.77;;;2.00;;
11665;SDS011;5889;51.350;6.708;2023-02-26T06:41:18;8.00;;;2.60;;
11665;SDS011;5889;51.350;6.708;2023-02-26T06:43:45;3.87;;;1.50;;
11665;SDS011;5889;51.350;6.708;2023-02-26T06:46:11;4.90;;;1.87;;
11665;SDS011;5889;51.350;6.708;2023-02-26T06:48:39;5.53;;;2.10;;
11665;SDS011;5889;51.350;6.708;2023-02-26T06:51:05;7.10;;;2.50;;
11665;SDS011;5889;51.350;6.708;2023-02-26T06:53:33;4.17;;;2.03;;
11665;SDS011;5889;51.350;6.708;2023-02-26T06:56:01;2.10;;;1.57;;
11665;SDS011;5889;51.350;6.708;2023-02-26T06:58:29;3.90;;;1.60;;
11665;SDS011;5889;51.350;6.708;2023-02-26T07:00:56;2.77;;;1.80;;
11665;SDS011;5889;51.350;6.708;2023-02-26T07:03:23;4.73;;;1.87;;
11665;SDS011;5889;51.350;6.708;2023-02-26T07:05:49;4.53;;;1.63;;
11665;SDS011;5889;51.350;6.708;2023-02-26T07:08:16;6.80;;;1.70;;
11665;SDS011;5889;51.350;6.708;2023-02-26T07:10:43;4.17;;;1.50;;
11665;SDS011;5889;51.350;6.708;2023-02-26T07:13:14;3.97;;;1.77;;
11665;SDS011;5889;51.350;6.708;2023-02-26T07:15:41;6.77;;;2.20;;
11665;SDS011;5889;51.350;6.708;2023-02-26T07:18:08;6.07;;;1.87;;
11665;SDS011;5889;51.350;6.708;2023-02-26T07:20:35;3.33;;;1.73;;
11665;SDS011;5889;51.350;6.708;2023-02-26T07:23:02;4.10;;;1.63;;
11665;SDS011;5889;51.350;6.708;2023-02-26T07:25:29;2.10;;;1.60;;
11665;SDS011;5889;51.350;6.708;2023-02-26T07:27:56;10.63;;;2.10;;
11665;SDS011;5889;51.350;6.708;2023-02-26T07:30:25;6.17;;;2.33;;
11665;SDS011;5889;51.350;6.708;2023-02-26T07:32:53;4.23;;;2.20;;
11665;SDS011;5889;51.350;6.708;2023-02-26T07:35:20;3.30;;;1.60;;
11665;SDS011;5889;51.350;6.708;2023-02-26T07:37:47;2.97;;;1.63;;
11665;SDS011;5889;51.350;6.708;2023-02-26T07:40:14;2.43;;;1.50;;
11665;SDS011;5889;51.350;6.708;2023-02-26T07:42:41;3.73;;;2.00;;
11665;SDS011;5889;51.350;6.708;2023-02-26T07:45:08;3.13;;;2.17;;
11665;SDS011;5889;51.350;6.708;2023-02-26T07:47:37;2.73;;;1.60;;
11665;SDS011;5889;51.350;6.708;2023-02-26T07:50:05;4.23;;;1.90;;
11665;SDS011;5889;51.350;6.708;2023-02-26T07:52:32;6.17;;;1.97;;
11665;SDS011;5889;51.350;6.708;2023-02-26T07:54:59;4.07;;;1.50;;
11665;SDS011;5889;51.350;6.708;2023-02-26T07:57:26;5.40;;;1.90;;
11665;SDS011;5889;51.350;6.708;2023-02-26T07:59:53;3.57;;;1.90;;
11665;SDS011;5889;51.350;6.708;2023-02-26T08:02:20;4.13;;;1.97;;
11665;SDS011;5889;51.350;6.708;2023-02-26T08:04:48;4.33;;;1.80;;
11665;SDS011;5889;51.350;6.708;2023-02-26T08:07:15;2.80;;;1.87;;
11665;SDS011;5889;51.350;6.708;2023-02-26T08:09:43;6.60;;;2.03;;
11665;SDS011;5889;51.350;6.708;2023-02-26T08:12:10;4.60;;;1.77;;
11665;SDS011;5889;51.350;6.708;2023-02-26T08:14:36;6.27;;;2.10;;
11665;SDS011;5889;51.350;6.708;2023-02-26T08:17:05;4.87;;;2.07;;
11665;SDS011;5889;51.350;6.708;2023-02-26T08:19:32;5.10;;;1.90;;
11665;SDS011;5889;51.350;6.708;2023-02-26T08:22:01;5.63;;;2.20;;
11665;SDS011;5889;51.350;6.708;2023-02-26T08:24:28;4.00;;;1.87;;
11665;SDS011;5889;51.350;6.708;2023-02-26T08:26:55;2.93;;;1.70;;
11665;SDS011;5889;51.350;6.708;2023-02-26T08:29:22;6.63;;;1.90;;
11665;SDS011;5889;51.350;6.708;2023-02-26T08:31:49;8.13;;;2.03;;
11665;SDS011;5889;51.350;6.708;2023-02-26T08:34:16;6.53;;;1.80;;
11665;SDS011;5889;51.350;6.708;2023-02-26T08:36:43;2.57;;;1.60;;
11665;SDS011;5889;51.350;6.708;2023-02-26T08:39:12;5.00;;;1.80;;
11665;SDS011;5889;51.350;6.708;2023-02-26T08:41:39;2.23;;;1.57;;
11665;SDS011;5889;51.350;6.708;2023-02-26T08:44:06;3.63;;;1.60;;
11665;SDS011;5889;51.350;6.708;2023-02-26T08:46:33;3.33;;;1.83;;
11665;SDS011;5889;51.350;6.708;2023-02-26T08:49:01;3.50;;;1.30;;
11665;SDS011;5889;51.350;6.708;2023-02-26T08:51:28;4.83;;;1.70;;
11665;SDS011;5889;51.350;6.708;2023-02-26T08:53:55;3.77;;;1.70;;
11665;SDS011;5889;51.350;6.708;2023-02-26T08:56:24;11.77;;;1.70;;
11665;SDS011;5889;51.350;6.708;2023-02-26T08:58:50;3.00;;;1.60;;
11665;SDS011;5889;51.350;6.708;2023-02-26T09:01:18;2.43;;;1.30;;
11665;SDS011;5889;51.350;6.708;2023-02-26T09:03:44;1.67;;;1.30;;
11665;SDS011;5889;51.350;6.708;2023-02-26T09:06:11;4.50;;;1.60;;
11665;SDS011;5889;51.350;6.708;2023-02-26T09:08:39;4.07;;;1.73;;
11665;SDS011;5889;51.350;6.708;2023-02-26T09:11:06;3.93;;;1.60;;
11665;SDS011;5889;51.350;6.708;2023-02-26T09:13:35;5.00;;;1.20;;
11665;SDS011;5889;51.350;6.708;2023-02-26T09:16:02;6.13;;;1.53;;
11665;SDS011;5889;51.350;6.708;2023-02-26T09:18:30;3.47;;;1.60;;
11665;SDS011;5889;51.350;6.708;2023-02-26T09:20:57;2.10;;;1.23;;
11665;SDS011;5889;51.350;6.708;2023-02-26T09:23:24;1.80;;;1.70;;
11665;SDS011;5889;51.350;6.708;2023-02-26T09:25:51;6.23;;;1.87;;
11665;SDS011;5889;51.350;6.708;2023-02-26T09:28:19;3.47;;;1.30;;
11665;SDS011;5889;51.350;6.708;2023-02-26T09:30:49;2.17;;;1.43;;
11665;SDS011;5889;51.350;6.708;2023-02-26T09:33:16;3.40;;;1.37;;
11665;SDS011;5889;51.350;6.708;2023-02-26T09:35:43;3.77;;;1.60;;
11665;SDS011;5889;51.350;6.708;2023-02-26T09:38:13;2.30;;;1.03;;
11665;SDS011;5889;51.350;6.708;2023-02-26T09:40:41;4.10;;;1.40;;
11665;SDS011;5889;51.350;6.708;2023-02-26T09:43:17;4.00;;;1.40;;
11665;SDS011;5889;51.350;6.708;2023-02-26T09:46:09;2.23;;;1.30;;
11665;SDS011;5889;51.350;6.708;2023-02-26T09:48:43;3.83;;;1.20;;
11665;SDS011;5889;51.350;6.708;2023-02-26T09:51:13;2.90;;;1.40;;
11665;SDS011;5889;51.350;6.708;2023-02-26T09:53:46;2.13;;;1.03;;
11665;SDS011;5889;51.350;6.708;2023-02-26T09:56:17;1.60;;;0.90;;
11665;SDS011;5889;51.350;6.708;2023-02-26T09:58:46;4.80;;;1.23;;
11665;SDS011;5889;51.350;6.708;2023-02-26T10:01:17;3.90;;;1.20;;
11665;SDS011;5889;51.350;6.708;2023-02-26T10:03:54;4.07;;;1.30;;
11665;SDS011;5889;51.350;6.708;2023-02-26T10:06:28;3.90;;;1.10;;
11665;SDS011;5889;51.350;6.708;2023-02-26T10:09:01;5.53;;;1.20;;
11665;SDS011;5889;51.350;6.708;2023-02-26T10:11:52;1.57;;;1.10;;
11665;SDS011;5889;51.350;6.708;2023-02-26T10:14:26;4.87;;;1.57;;
11665;SDS011;5889;51.350;6.708;2023-02-26T10:16:59;3.10;;;1.30;;
11665;SDS011;5889;51.350;6.708;2023-02-26T10:19:29;5.33;;;1.30;;
11665;SDS011;5889;51.350;6.708;2023-02-26T10:22:01;3.27;;;1.10;;
11665;SDS011;5889;51.350;6.708;2023-02-26T10:24:36;3.33;;;1.40;;
11665;SDS011;5889;51.350;6.708;2023-02-26T10:27:08;4.77;;;1.20;;
11665;SDS011;5889;51.350;6.708;2023-02-26T10:29:39;3.60;;;1.43;;
11665;SDS011;5889;51.350;6.708;2023-02-26T10:32:17;4.67;;;1.30;;
11665;SDS011;5889;51.350;6.708;2023-02-26T10:34:51;2.67;;;1.40;;
11665;SDS011;5889;51.350;6.708;2023-02-26T10:37:23;2.90;;;1.20;;
11665;SDS011;5889;51.350;6.708;2023-02-26T10:40:01;3.40;;;1.20;;
11665;SDS011;5889;51.350;6.708;2023-02-26T10:42:43;1.90;;;1.33;;
11665;SDS011;5889;51.350;6.708;2023-02-26T10:45:23;3.63;;;1.50;;
11665;SDS011;5889;51.350;6.708;2023-02-26T10:47:59;1.67;;;1.17;;
11665;SDS011;5889;51.350;6.708;2023-02-26T10:50:38;1.23;;;1.03;;
11665;SDS011;5889;51.350;6.708;2023-02-26T10:53:11;2.50;;;1.50;;
11665;SDS011;5889;51.350;6.708;2023-02-26T10:55:38;2.87;;;1.13;;
11665;SDS011;5889;51.350;6.708;2023-02-26T10:58:10;3.10;;;1.10;;
11665;SDS011;5889;51.350;6.708;2023-02-26T11:00:39;1.93;;;1.00;;
11665;SDS011;5889;51.350;6.708;2023-02-26T11:03:12;3.80;;;1.50;;
11665;SDS011;5889;51.350;6.708;2023-02-26T11:05:41;3.40;;;1.53;;
11665;SDS011;5889;51.350;6.708;2023-02-26T11:08:10;2.13;;;1.20;;
11665;SDS011;5889;51.350;6.708;2023-02-26T11:10:43;3.97;;;1.47;;
11665;SDS011;5889;51.350;6.708;2023-02-26T11:13:13;1.47;;;1.00;;
11665;SDS011;5889;51.350;6.708;2023-02-26T11:15:40;3.77;;;1.50;;
11665;SDS011;5889;51.350;6.708;2023-02-26T11:18:12;3.57;;;1.50;;
11665;SDS011;5889;51.350;6.708;2023-02-26T11:20:42;2.50;;;1.53;;
11665;SDS011;5889;51.350;6.708;2023-02-26T11:23:11;3.70;;;1.93;;
11665;SDS011;5889;51.350;6.708;2023-02-26T11:25:40;3.23;;;1.63;;
11665;SDS011;5889;51.350;6.708;2023-02-26T11:28:16;3.40;;;1.23;;
11665;SDS011;5889;51.350;6.708;2023-02-26T11:30:46;3.40;;;1.30;;
11665;SDS011;5889;51.350;6.708;2023-02-26T11:33:20;1.93;;;1.73;;
11665;SDS011;5889;51.350;6.708;2023-02-26T11:35:49;2.77;;;1.50;;
11665;SDS011;5889;51.350;6.708;2023-02-26T11:38:18;1.30;;;1.10;;
11665;SDS011;5889;51.350;6.708;2023-02-26T11:40:48;2.47;;;1.30;;
11665;SDS011;5889;51.350;6.708;2023-02-26T11:43:20;3.07;;;1.53;;
11665;SDS011;5889;51.350;6.708;2023-02-26T11:45:51;5.60;;;1.33;;
11665;SDS011;5889;51.350;6.708;2023-02-26T11:48:23;4.60;;;1.17;;
11665;SDS011;5889;51.350;6.708;2023-02-26T11:50:55;3.97;;;1.10;;
11665;SDS011;5889;51.350;6.708;2023-02-26T11:53:25;5.03;;;1.30;;
11665;SDS011;5889;51.350;6.708;2023-02-26T11:55:58;2.33;;;1.30;;
11665;SDS011;5889;51.350;6.708;2023-02-26T11:58:27;3.13;;;1.20;;
11665;SDS011;5889;51.350;6.708;2023-02-26T12:01:00;2.17;;;1.00;;
11665;SDS011;5889;51.350;6.708;2023-02-26T12:03:32;2.17;;;1.20;;
11665;SDS011;5889;51.350;6.708;2023-02-26T12:06:00;2.00;;;1.00;;
11665;SDS011;5889;51.350;6.708;2023-02-26T12:08:29;1.63;;;1.20;;
11665;SDS011;5889;51.350;6.708;2023-02-26T12:11:08;1.53;;;0.90;;
11665;SDS011;5889;51.350;6.708;2023-02-26T12:13:48;1.20;;;1.00;;
11665;SDS011;5889;51.350;6.708;2023-02-26T12:16:27;1.97;;;1.10;;
11665;SDS011;5889;51.350;6.708;2023-02-26T12:19:03;2.20;;;1.20;;
11665;SDS011;5889;51.350;6.708;2023-02-26T12:24:54;4.00;;;1.33;;
11665;SDS011;5889;51.350;6.708;2023-02-26T12:27:33;5.37;;;1.20;;
11665;SDS011;5889;51.350;6.708;2023-02-26T12:30:20;0.90;;;0.90;;
11665;SDS011;5889;51.350;6.708;2023-02-26T12:33:01;1.80;;;1.10;;
11665;SDS011;5889;51.350;6.708;2023-02-26T12:35:43;1.43;;;1.10;;
11665;SDS011;5889;51.350;6.708;2023-02-26T12:38:21;3.33;;;1.10;;
11665;SDS011;5889;51.350;6.708;2023-02-26T12:41:09;1.83;;;0.93;;
11665;SDS011;5889;51.350;6.708;2023-02-26T12:43:53;3.10;;;1.20;;
11665;SDS011;5889;51.350;6.708;2023-02-26T12:46:25;2.80;;;1.40;;
11665;SDS011;5889;51.350;6.708;2023-02-26T12:52:17;3.20;;;1.13;;
11665;SDS011;5889;51.350;6.708;2023-02-26T12:55:09;1.67;;;1.10;;
11665;SDS011;5889;51.350;6.708;2023-02-26T12:57:56;1.50;;;1.03;;
11665;SDS011;5889;51.350;6.708;2023-02-26T13:00:41;2.30;;;1.00;;
11665;SDS011;5889;51.350;6.708;2023-02-26T13:09:27;3.13;;;1.20;;
11665;SDS011;5889;51.350;6.708;2023-02-26T13:12:00;1.77;;;1.27;;
11665;SDS011;5889;51.350;6.708;2023-02-26T13:14:52;3.23;;;1.43;;
11665;SDS011;5889;51.350;6.708;2023-02-26T13:17:26;1.73;;;1.20;;
11665;SDS011;5889;51.350;6.708;2023-02-26T13:20:00;1.87;;;1.20;;
11665;SDS011;5889;51.350;6.708;2023-02-26T13:22:36;1.93;;;1.20;;
11665;SDS011;5889;51.350;6.708;2023-02-26T13:25:11;2.10;;;1.10;;
11665;SDS011;5889;51.350;6.708;2023-02-26T13:27:44;2.17;;;1.40;;
11665;SDS011;5889;51.350;6.708;2023-02-26T13:30:17;1.40;;;1.30;;
11665;SDS011;5889;51.350;6.708;2023-02-26T13:32:47;1.97;;;1.27;;
11665;SDS011;5889;51.350;6.708;2023-02-26T13:35:19;3.23;;;1.30;;
11665;SDS011;5889;51.350;6.708;2023-02-26T13:37:51;2.70;;;1.10;;
11665;SDS011;5889;51.350;6.708;2023-02-26T13:46:34;1.47;;;1.13;;
11665;SDS011;5889;51.350;6.708;2023-02-26T13:49:08;2.23;;;1.00;;
11665;SDS011;5889;51.350;6.708;2023-02-26T13:51:41;2.00;;;1.07;;
11665;SDS011;5889;51.350;6.708;2023-02-26T13:57:10;2.23;;;1.03;;
11665;SDS011;5889;51.350;6.708;2023-02-26T13:59:54;3.03;;;1.30;;
11665;SDS011;5889;51.350;6.708;2023-02-26T14:02:33;1.63;;;1.40;;
11665;SDS011;5889;51.350;6.708;2023-02-26T14:05:06;2.87;;;1.57;;
11665;SDS011;5889;51.350;6.708;2023-02-26T14:07:53;1.90;;;1.53;;
11665;SDS011;5889;51.350;6.708;2023-02-26T14:10:42;2.63;;;1.43;;
11665;SDS011;5889;51.350;6.708;2023-02-26T14:13:13;2.80;;;1.60;;
11665;SDS011;5889;51.350;6.708;2023-02-26T14:15:48;1.90;;;1.20;;
11665;SDS011;5889;51.350;6.708;2023-02-26T14:18:25;2.57;;;1.30;;
11665;SDS011;5889;51.350;6.708;2023-02-26T14:24:04;1.50;;;1.20;;
11665;SDS011;5889;51.350;6.708;2023-02-26T14:26:43;2.67;;;1.10;;
11665;SDS011;5889;51.350;6.708;2023-02-26T14:29:18;2.57;;;1.10;;
11665;SDS011;5889;51.350;6.708;2023-02-26T14:34:42;1.83;;;1.10;;
11665;SDS011;5889;51.350;6.708;2023-02-26T14:37:14;1.93;;;1.10;;
11665;SDS011;5889;51.350;6.708;2023-02-26T14:39:46;4.40;;;1.33;;
11665;SDS011;5889;51.350;6.708;2023-02-26T14:42:17;2.70;;;1.97;;
11665;SDS011;5889;51.350;6.708;2023-02-26T14:44:49;2.87;;;1.33;;
11665;SDS011;5889;51.350;6.708;2023-02-26T14:47:21;3.00;;;1.53;;
11665;SDS011;5889;51.350;6.708;2023-02-26T14:49:48;4.07;;;1.20;;
11665;SDS011;5889;51.350;6.708;2023-02-26T14:52:25;1.70;;;1.00;;
11665;SDS011;5889;51.350;6.708;2023-02-26T14:55:08;2.70;;;1.10;;
11665;SDS011;5889;51.350;6.708;2023-02-26T14:57:56;2.07;;;1.20;;
11665;SDS011;5889;51.350;6.708;2023-02-26T15:00:37;1.60;;;1.00;;
11665;SDS011;5889;51.350;6.708;2023-02-26T15:03:19;1.27;;;0.90;;
11665;SDS011;5889;51.350;6.708;2023-02-26T15:09:03;1.50;;;1.20;;
11665;SDS011;5889;51.350;6.708;2023-02-26T15:11:41;2.93;;;1.07;;
11665;SDS011;5889;51.350;6.708;2023-02-26T15:17:15;2.43;;;1.23;;
11665;SDS011;5889;51.350;6.708;2023-02-26T15:20:00;2.07;;;1.10;;
11665;SDS011;5889;51.350;6.708;2023-02-26T15:22:39;3.10;;;1.40;;
11665;SDS011;5889;51.350;6.708;2023-02-26T15:25:17;1.87;;;1.40;;
11665;SDS011;5889;51.350;6.708;2023-02-26T15:27:52;1.07;;;1.00;;
11665;SDS011;5889;51.350;6.708;2023-02-26T15:30:19;4.17;;;2.00;;
11665;SDS011;5889;51.350;6.708;2023-02-26T15:32:54;4.87;;;1.77;;
11665;SDS011;5889;51.350;6.708;2023-02-26T15:35:22;1.83;;;1.43;;
11665;SDS011;5889;51.350;6.708;2023-02-26T15:37:50;1.53;;;1.10;;
11665;SDS011;5889;51.350;6.708;2023-02-26T15:40:21;1.23;;;1.10;;
11665;SDS011;5889;51.350;6.708;2023-02-26T15:42:49;3.20;;;1.43;;
11665;SDS011;5889;51.350;6.708;2023-02-26T15:45:19;3.73;;;1.30;;
11665;SDS011;5889;51.350;6.708;2023-02-26T15:47:51;2.03;;;1.40;;
11665;SDS011;5889;51.350;6.708;2023-02-26T15:50:21;1.83;;;1.23;;
11665;SDS011;5889;51.350;6.708;2023-02-26T15:52:52;2.97;;;1.30;;
11665;SDS011;5889;51.350;6.708;2023-02-26T15:55:27;1.37;;;1.20;;
11665;SDS011;5889;51.350;6.708;2023-02-26T15:57:59;3.90;;;1.43;;
11665;SDS011;5889;51.350;6.708;2023-02-26T16:00:26;2.47;;;1.40;;
11665;SDS011;5889;51.350;6.708;2023-02-26T16:02:59;2.80;;;1.27;;
11665;SDS011;5889;51.350;6.708;2023-02-26T16:05:28;3.07;;;1.30;;